Congonhas Airport
SBSP : now visible

Airfield :











YOU CAN JOIN US ON...

 
LOGIN :

Register | Disclaimer

   EN    FR    IT 

 









Legend :    VFR   Marginal VFR   IFR   Intensive IFR   Very Intensive IFR
Visi :
Ceiling :
>= 8 km
>= 3000ft
5 to 8 km
1000 to 3000 ft
1500m to 5 km
500 to 1000 ft
800 to 1500m
200 to 500 ft
< 800m
< 200 ft
Symbols :   Thunderstorms  Fog  Heavy snow  Heavy precipitations  Wind > 20 kt







- Airport Elevation : 2631 ft
- IATA code : CGH


SBSP - Congonhas

CURRENT METAR :
  • 241100Z 01002KT CAVOK 17/11 Q1022

EXPIRED METARs :
  • 241000Z 32003KT 270V350 CAVOK 16/11 Q1022
  • 240900Z VRB02KT CAVOK 15/10 Q1021

TAF TAF SBSP
Valid from the 24 at 12:00 until the 25 at 12:00 UTC


240900Z 2412/2512 34010KT CAVOK TX25/2417Z TN15/2508Z
BECMG 2420/2422 35005KT
PROB30 2508/2510 5000 BR NSC
BECMG 2510/2512 34012KT RMK PGH
SBCW FIR / South America



MET'MAP, your aeronautical weather chart ! - Copyright ORBIFLY December 2007 - Disclaimer

ORBIFLY MET'MAP TEAM :

Programming & Development : Alexandra Zaïnal
Concept & Development : Baudouin d'Aumeries
Co-Development & Prog : Marc-Olivier Méhu
Technical & hardware support : Manuel Goepfert

Contact : metmap@orbifly.com




SOURCES & CREDITS :

   NOAA       Earth
Advisory